createdAt,value
2022-09-20T00:01:27.036Z,101090.66
2022-09-20T00:03:57.231Z,101087.94
2022-09-20T00:06:28.441Z,101089.25
2022-09-20T00:08:57.585Z,101089.88
2022-09-20T00:11:27.579Z,101081.94
2022-09-20T00:13:57.872Z,101085.97
2022-09-20T00:16:29.744Z,101097.97
2022-09-20T00:19:00.501Z,101093.25
2022-09-20T00:21:31.726Z,101095.34
2022-09-20T00:24:00.175Z,101092.53
2022-09-20T00:26:28.912Z,101104.19
2022-09-20T00:28:59.104Z,101110.41
2022-09-20T00:31:28.377Z,101116.44
2022-09-20T00:34:15.028Z,101114.97
2022-09-20T00:36:45.293Z,101130.25
2022-09-20T00:39:15.420Z,101127.53
2022-09-20T00:41:44.400Z,101127.13
2022-09-20T00:44:48.988Z,101135.25
2022-09-20T00:47:30.480Z,101130.97
2022-09-20T00:50:03.816Z,101142.72
2022-09-20T00:52:34.165Z,101144.69
2022-09-20T00:55:06.916Z,101139.72
2022-09-20T00:57:36.379Z,101144.69
2022-09-20T01:00:07.978Z,101136.16
2022-09-20T01:02:41.031Z,101132.94
2022-09-20T01:05:11.448Z,101132.25
2022-09-20T01:07:42.899Z,101126.09
2022-09-20T01:10:11.093Z,101134.78
2022-09-20T01:12:40.632Z,101129.50
2022-09-20T01:15:10.662Z,101124.63
2022-09-20T01:17:42.925Z,101124.50
2022-09-20T01:20:18.345Z,101128.53
2022-09-20T01:22:59.010Z,101128.53
2022-09-20T01:25:48.803Z,101128.63
2022-09-20T01:28:18.439Z,101126.69
2022-09-20T01:30:52.032Z,101134.81
2022-09-20T01:33:30.980Z,101135.59
2022-09-20T01:36:04.859Z,101139.09
2022-09-20T01:38:43.395Z,101138.00
2022-09-20T01:41:16.553Z,101145.72
2022-09-20T01:43:52.304Z,101145.56
2022-09-20T01:46:31.887Z,101151.75
2022-09-20T01:49:10.832Z,101150.25
2022-09-20T01:52:10.642Z,101154.00
2022-09-20T01:55:03.407Z,101138.50
2022-09-20T01:58:23.830Z,101144.78
2022-09-20T02:01:15.182Z,101146.38
2022-09-20T02:04:02.952Z,101153.69
2022-09-20T02:06:43.289Z,101146.38
2022-09-20T02:09:44.757Z,101151.19
2022-09-20T02:12:33.602Z,101149.47
2022-09-20T02:15:14.544Z,101150.19
2022-09-20T02:17:56.108Z,101146.91
2022-09-20T02:20:34.098Z,101148.56
2022-09-20T02:23:15.191Z,101144.13
2022-09-20T02:25:58.409Z,101143.47
2022-09-20T02:28:38.827Z,101139.28
2022-09-20T02:31:17.392Z,101155.25
2022-09-20T02:34:03.663Z,101144.06
2022-09-20T02:36:45.573Z,101147.00
2022-09-20T02:39:18.040Z,101151.88
2022-09-20T02:42:05.257Z,101144.16
2022-09-20T02:44:56.655Z,101144.94
2022-09-20T02:47:34.150Z,101149.81
2022-09-20T02:50:24.257Z,101150.56
2022-09-20T02:53:05.241Z,101145.13
2022-09-20T02:55:42.956Z,101156.25
2022-09-20T02:58:28.818Z,101161.78
2022-09-20T03:01:08.658Z,101153.44
2022-09-20T03:03:46.867Z,101162.94
2022-09-20T03:06:26.504Z,101163.09
2022-09-20T03:09:04.894Z,101168.91
2022-09-20T03:11:40.313Z,101170.72
2022-09-20T03:14:23.697Z,101180.56
2022-09-20T03:17:03.860Z,101179.97
2022-09-20T03:19:44.354Z,101191.47
2022-09-20T03:22:27.907Z,101184.50
2022-09-20T03:25:19.595Z,101190.69
2022-09-20T03:28:00.423Z,101191.00
2022-09-20T03:30:41.511Z,101198.28
2022-09-20T03:33:15.092Z,101189.19
2022-09-20T03:35:55.097Z,101195.78
2022-09-20T03:38:50.481Z,101198.94
2022-09-20T03:41:35.806Z,101194.56
2022-09-20T03:44:23.707Z,101205.34
2022-09-20T03:47:03.030Z,101203.97
2022-09-20T03:50:06.933Z,101209.78
2022-09-20T03:52:58.280Z,101210.13
2022-09-20T03:55:51.746Z,101207.66
2022-09-20T03:58:36.499Z,101201.16
2022-09-20T04:01:27.624Z,101210.81
2022-09-20T04:04:05.552Z,101205.47
2022-09-20T04:06:50.680Z,101201.44
2022-09-20T04:09:41.747Z,101202.22
2022-09-20T04:12:21.810Z,101204.59
2022-09-20T04:14:59.762Z,101200.06
2022-09-20T04:17:36.956Z,101199.44
2022-09-20T04:20:16.040Z,101201.28
2022-09-20T04:22:48.506Z,101192.38
2022-09-20T04:25:21.538Z,101196.22
2022-09-20T04:27:55.863Z,101201.97
2022-09-20T04:30:30.134Z,101201.84
2022-09-20T04:33:02.471Z,101198.38
2022-09-20T04:36:03.912Z,101204.66
2022-09-20T04:38:33.792Z,101206.91
2022-09-20T04:41:29.545Z,101204.50
2022-09-20T04:44:17.156Z,101205.88
2022-09-20T04:47:25.819Z,101203.81
2022-09-20T04:50:23.898Z,101208.81
2022-09-20T04:53:33.261Z,101216.19
2022-09-20T04:56:02.528Z,101208.34
2022-09-20T04:58:42.191Z,101221.25
2022-09-20T05:01:51.376Z,101219.78
2022-09-20T05:04:50.103Z,101222.72
2022-09-20T05:08:00.542Z,101225.97
2022-09-20T05:10:58.336Z,101232.97
2022-09-20T05:13:38.771Z,101229.44
2022-09-20T05:16:15.697Z,101232.25
2022-09-20T05:19:14.563Z,101245.25
2022-09-20T05:21:53.924Z,101240.16
2022-09-20T05:24:32.907Z,101248.41
2022-09-20T05:27:13.859Z,101254.63
2022-09-20T05:29:51.639Z,101257.53
2022-09-20T05:32:26.025Z,101265.06
2022-09-20T05:35:01.645Z,101270.06
2022-09-20T05:37:42.407Z,101269.16
2022-09-20T05:40:22.389Z,101270.56
2022-09-20T05:42:56.152Z,101277.09
2022-09-20T05:45:47.232Z,101275.47
2022-09-20T05:48:19.671Z,101271.81
2022-09-20T05:50:59.536Z,101267.63
2022-09-20T05:53:51.359Z,101271.91
2022-09-20T05:56:30.488Z,101280.34
2022-09-20T05:59:13.898Z,101273.72
2022-09-20T06:01:47.375Z,101280.16
2022-09-20T06:04:20.619Z,101282.56
2022-09-20T06:07:00.990Z,101286.53
2022-09-20T06:10:00.813Z,101288.00
2022-09-20T06:12:43.193Z,101289.22
2022-09-20T06:15:21.745Z,101289.56
2022-09-20T06:18:00.755Z,101295.31
2022-09-20T06:20:34.652Z,101285.72
2022-09-20T06:23:06.481Z,101280.19
2022-09-20T06:25:43.199Z,101279.19
2022-09-20T06:28:16.258Z,101278.03
2022-09-20T06:30:47.282Z,101273.06
2022-09-20T06:33:17.662Z,101275.81
2022-09-20T06:35:53.811Z,101268.06
2022-09-20T06:38:58.042Z,101257.41
2022-09-20T06:41:30.522Z,101254.47
2022-09-20T06:44:00.720Z,101246.34
2022-09-20T06:46:30.084Z,101230.47
2022-09-20T06:48:59.167Z,101226.13
2022-09-20T06:51:29.702Z,101216.94
2022-09-20T06:53:59.178Z,101212.88
2022-09-20T06:56:30.596Z,101204.22
2022-09-20T06:58:59.194Z,101194.25
2022-09-20T07:01:30.388Z,101194.06
2022-09-20T07:03:59.561Z,101198.13
2022-09-20T07:06:29.219Z,101193.38
2022-09-20T07:08:58.740Z,101197.47
2022-09-20T07:11:27.151Z,101205.84
2022-09-20T07:13:58.350Z,101207.13
2022-09-20T07:16:27.376Z,101208.66
2022-09-20T07:18:56.796Z,101213.81
2022-09-20T07:21:25.463Z,101205.53
2022-09-20T07:23:54.031Z,101201.66
2022-09-20T07:26:25.800Z,101198.88
2022-09-20T07:28:54.615Z,101201.94
2022-09-20T07:31:25.007Z,101209.88
2022-09-20T07:33:54.215Z,101207.25
2022-09-20T07:36:22.575Z,101213.16
2022-09-20T07:38:52.437Z,101212.47
2022-09-20T07:41:23.715Z,101218.94
2022-09-20T07:43:52.284Z,101211.97
2022-09-20T07:46:22.185Z,101220.81
2022-09-20T07:48:50.518Z,101220.91
2022-09-20T07:51:18.720Z,101217.09
2022-09-20T07:53:46.863Z,101230.34
2022-09-20T07:56:18.345Z,101235.09
2022-09-20T07:58:52.239Z,101238.13
2022-09-20T08:01:22.764Z,101233.84
2022-09-20T08:03:51.983Z,101230.16
2022-09-20T08:06:21.436Z,101233.00
2022-09-20T08:08:51.543Z,101235.75
2022-09-20T08:11:27.774Z,101237.06
2022-09-20T08:14:08.386Z,101242.13
2022-09-20T08:16:40.447Z,101234.50
2022-09-20T08:19:08.727Z,101240.81
2022-09-20T08:21:37.941Z,101233.56
2022-09-20T08:24:06.657Z,101244.06
2022-09-20T08:26:36.207Z,101247.38
2022-09-20T08:29:06.815Z,101246.34
2022-09-20T08:31:38.518Z,101249.84
2022-09-20T08:34:09.613Z,101261.50
2022-09-20T08:36:41.774Z,101258.38
2022-09-20T08:42:12.874Z,101259.25
2022-09-20T08:44:57.741Z,101262.31
2022-09-20T08:47:28.917Z,101262.00
2022-09-20T08:49:58.841Z,101251.97
2022-09-20T08:52:36.973Z,101270.84
2022-09-20T08:55:16.990Z,101269.88
2022-09-20T08:57:50.341Z,101270.25
2022-09-20T09:00:22.140Z,101267.41
2022-09-20T09:02:52.999Z,101266.66
2022-09-20T09:05:33.548Z,101269.31
2022-09-20T09:08:05.228Z,101270.00
2022-09-20T09:10:42.690Z,101268.03
2022-09-20T09:13:19.455Z,101270.47
2022-09-20T09:15:54.137Z,101270.91
2022-09-20T09:18:22.481Z,101276.22
2022-09-20T09:20:51.564Z,101276.69
2022-09-20T09:23:26.283Z,101284.63
2022-09-20T09:25:55.771Z,101279.50
2022-09-20T09:28:26.719Z,101273.38
2022-09-20T09:31:13.870Z,101282.22
2022-09-20T09:33:45.489Z,101290.16
2022-09-20T09:36:16.032Z,101292.06
2022-09-20T09:38:47.081Z,101295.59
2022-09-20T09:41:26.358Z,101287.69
2022-09-20T09:44:02.843Z,101287.78
2022-09-20T09:46:34.417Z,101287.00
2022-09-20T09:49:11.736Z,101289.16
2022-09-20T09:51:43.085Z,101287.72
2022-09-20T09:54:19.699Z,101286.94
2022-09-20T09:57:08.746Z,101297.00
2022-09-20T09:59:58.285Z,101287.09
2022-09-20T10:02:55.307Z,101293.22
2022-09-20T10:05:29.279Z,101292.66
2022-09-20T10:08:06.224Z,101297.22
2022-09-20T10:10:45.161Z,101303.00
2022-09-20T10:13:23.637Z,101297.44
2022-09-20T10:15:59.972Z,101295.91
2022-09-20T10:18:42.626Z,101314.47
2022-09-20T10:21:20.363Z,101307.19
2022-09-20T10:24:03.782Z,101305.44
2022-09-20T10:26:48.144Z,101304.03
2022-09-20T10:29:29.131Z,101306.91
2022-09-20T10:32:08.032Z,101298.50
2022-09-20T10:35:04.812Z,101300.41
2022-09-20T10:37:49.452Z,101291.16
2022-09-20T10:40:48.808Z,101294.53
2022-09-20T10:43:30.505Z,101288.94
2022-09-20T10:49:04.737Z,101276.63
2022-09-20T10:51:48.295Z,101295.38
2022-09-20T10:54:33.076Z,101309.84
2022-09-20T10:57:18.489Z,101308.00
2022-09-20T10:59:52.195Z,101312.78
2022-09-20T11:02:39.837Z,101319.16
2022-09-20T11:05:21.209Z,101319.56
2022-09-20T11:08:02.072Z,101332.94
2022-09-20T11:10:36.074Z,101333.84
2022-09-20T11:13:09.252Z,101349.47
2022-09-20T11:15:45.283Z,101367.72
2022-09-20T11:18:23.852Z,101358.75
2022-09-20T11:20:58.167Z,101330.78
2022-09-20T11:23:36.260Z,101318.59
2022-09-20T11:26:11.388Z,101312.84
2022-09-20T11:28:43.333Z,101310.81
2022-09-20T11:31:16.791Z,101307.00
2022-09-20T11:33:49.684Z,101318.50
2022-09-20T11:36:23.693Z,101325.97
2022-09-20T11:38:57.335Z,101339.47
2022-09-20T11:41:28.204Z,101325.75
2022-09-20T11:44:00.429Z,101333.94
2022-09-20T11:46:32.214Z,101341.09
2022-09-20T11:49:03.911Z,101350.88
2022-09-20T11:51:50.856Z,101345.00
2022-09-20T11:54:36.201Z,101356.50
2022-09-20T11:57:07.993Z,101353.66
2022-09-20T11:59:39.596Z,101361.56
2022-09-20T12:02:19.112Z,101365.50
2022-09-20T12:04:53.079Z,101367.94
2022-09-20T12:07:25.702Z,101363.13
2022-09-20T12:10:00.523Z,101359.38
2022-09-20T12:12:39.011Z,101360.66
2022-09-20T12:15:23.480Z,101359.13
2022-09-20T12:18:27.790Z,101351.84
2022-09-20T12:21:01.424Z,101359.97
2022-09-20T12:23:46.986Z,101372.41
2022-09-20T12:26:38.401Z,101380.44
2022-09-20T12:29:54.302Z,101388.00
2022-09-20T12:32:47.482Z,101396.06
2022-09-20T12:36:00.984Z,101393.00
2022-09-20T12:38:46.347Z,101402.88
2022-09-20T12:41:26.043Z,101408.97
2022-09-20T12:44:01.553Z,101412.53
2022-09-20T12:46:41.824Z,101413.56
2022-09-20T12:49:37.677Z,101404.56
2022-09-20T12:52:23.476Z,101403.78
2022-09-20T12:54:56.339Z,101398.56
2022-09-20T12:57:32.176Z,101407.56
2022-09-20T13:00:03.279Z,101413.56
2022-09-20T13:02:58.638Z,101411.97
2022-09-20T13:05:38.108Z,101413.22
2022-09-20T13:08:16.077Z,101417.81
2022-09-20T13:10:49.861Z,101420.41
2022-09-20T13:13:31.547Z,101413.38
2022-09-20T13:16:05.553Z,101415.06
2022-09-20T13:18:38.156Z,101420.44
2022-09-20T13:21:08.828Z,101420.53
2022-09-20T13:23:47.624Z,101418.91
2022-09-20T13:26:17.435Z,101419.69
2022-09-20T13:28:51.531Z,101422.13
2022-09-20T13:31:29.983Z,101405.81
2022-09-20T13:34:14.328Z,101400.13
2022-09-20T13:36:43.255Z,101389.50
2022-09-20T13:39:25.726Z,101392.31
2022-09-20T13:41:54.028Z,101385.50
2022-09-20T13:44:24.506Z,101378.41
2022-09-20T13:46:53.986Z,101378.72
2022-09-20T13:49:23.767Z,101386.91
2022-09-20T13:51:52.614Z,101382.53
2022-09-20T13:54:27.472Z,101381.78
2022-09-20T13:56:58.624Z,101377.41
2022-09-20T13:59:31.668Z,101388.53
2022-09-20T14:02:01.314Z,101379.44
2022-09-20T14:04:31.566Z,101389.00
2022-09-20T14:07:01.267Z,101397.50
2022-09-20T14:09:32.463Z,101395.94
2022-09-20T14:12:01.151Z,101405.19
2022-09-20T14:14:30.900Z,101414.72
2022-09-20T14:17:02.768Z,101418.78
2022-09-20T14:19:35.057Z,101420.41
2022-09-20T14:22:06.213Z,101424.50
2022-09-20T14:24:37.117Z,101429.44
2022-09-20T14:27:15.775Z,101431.56
2022-09-20T14:29:46.291Z,101441.22
2022-09-20T14:32:30.901Z,101443.38
2022-09-20T14:35:05.879Z,101445.31
2022-09-20T14:37:37.524Z,101447.56
2022-09-20T14:40:16.938Z,101452.66
2022-09-20T14:42:47.996Z,101446.56
2022-09-20T14:45:24.511Z,101448.25
2022-09-20T14:48:01.476Z,101449.38
2022-09-20T14:50:31.819Z,101451.00
2022-09-20T14:53:21.494Z,101457.19
2022-09-20T14:56:08.868Z,101462.50
2022-09-20T14:59:18.568Z,101465.09
2022-09-20T15:01:55.687Z,101469.69
2022-09-20T15:04:26.925Z,101472.28
2022-09-20T15:06:55.898Z,101476.13
2022-09-20T15:09:24.224Z,101482.19
2022-09-20T15:12:06.779Z,101486.84
2022-09-20T15:14:37.876Z,101488.06
2022-09-20T15:17:06.415Z,101480.56
2022-09-20T15:19:36.325Z,101496.47
2022-09-20T15:22:04.739Z,101497.31
2022-09-20T15:24:32.858Z,101502.81
2022-09-20T15:27:00.984Z,101513.13
2022-09-20T15:29:29.201Z,101520.16
2022-09-20T15:31:57.828Z,101523.09
2022-09-20T15:34:26.101Z,101530.53
2022-09-20T15:36:55.839Z,101520.63
2022-09-20T15:39:24.665Z,101513.41
2022-09-20T15:41:53.409Z,101502.91
2022-09-20T15:44:21.924Z,101512.47
2022-09-20T15:46:51.549Z,101522.50
2022-09-20T15:49:20.764Z,101527.09
2022-09-20T15:51:49.340Z,101527.66
2022-09-20T15:54:19.012Z,101538.44
2022-09-20T15:56:47.136Z,101534.44
2022-09-20T15:59:16.383Z,101535.28
2022-09-20T16:01:48.105Z,101545.75
2022-09-20T16:04:18.628Z,101540.50
2022-09-20T16:06:49.394Z,101546.19
2022-09-20T16:09:19.786Z,101551.34
2022-09-20T16:11:48.457Z,101546.00
2022-09-20T16:14:16.640Z,101555.41
2022-09-20T16:16:44.813Z,101558.06
2022-09-20T16:19:19.947Z,101568.53
2022-09-20T16:21:56.596Z,101568.03
2022-09-20T16:24:28.871Z,101583.78
2022-09-20T16:26:57.297Z,101582.63
2022-09-20T16:29:26.572Z,101591.09
2022-09-20T16:31:55.653Z,101591.31
2022-09-20T16:34:29.678Z,101587.44
2022-09-20T16:37:00.439Z,101598.09
2022-09-20T16:39:31.572Z,101603.81
2022-09-20T16:42:03.621Z,101615.31
2022-09-20T16:44:32.193Z,101615.31
2022-09-20T16:47:01.140Z,101624.19
2022-09-20T16:49:29.859Z,101625.44
2022-09-20T16:51:58.027Z,101623.47
2022-09-20T16:54:31.045Z,101622.88
2022-09-20T16:57:01.885Z,101613.59
2022-09-20T16:59:30.050Z,101621.59
2022-09-20T17:01:58.679Z,101622.00
2022-09-20T17:04:27.020Z,101614.00
2022-09-20T17:06:55.631Z,101618.75
2022-09-20T17:09:23.787Z,101612.31
2022-09-20T17:11:52.576Z,101618.22
2022-09-20T17:14:22.307Z,101614.06
2022-09-20T17:16:50.573Z,101604.66
2022-09-20T17:19:20.397Z,101620.38
2022-09-20T17:21:50.885Z,101618.16
2022-09-20T17:24:20.248Z,101621.94
2022-09-20T17:26:48.998Z,101626.63
2022-09-20T17:29:19.218Z,101624.31
2022-09-20T17:31:55.111Z,101633.69
2022-09-20T17:34:25.979Z,101631.56
2022-09-20T17:36:55.322Z,101641.44
2022-09-20T17:39:24.111Z,101654.19
2022-09-20T17:41:54.403Z,101650.75
2022-09-20T17:44:22.652Z,101659.13
2022-09-20T17:46:54.042Z,101658.31
2022-09-20T17:49:23.620Z,101657.31
2022-09-20T17:51:53.491Z,101663.56
2022-09-20T17:54:24.392Z,101669.53
2022-09-20T17:56:55.831Z,101666.16
2022-09-20T17:59:24.870Z,101671.38
2022-09-20T18:01:55.419Z,101663.06
2022-09-20T18:04:24.536Z,101664.50
2022-09-20T18:06:54.699Z,101660.97
2022-09-20T18:09:25.299Z,101668.78
2022-09-20T18:11:55.447Z,101671.19
2022-09-20T18:14:25.277Z,101672.75
2022-09-20T18:16:57.974Z,101672.72
2022-09-20T18:19:32.519Z,101669.00
2022-09-20T18:22:01.830Z,101668.28
2022-09-20T18:24:30.826Z,101672.91
2022-09-20T18:27:00.601Z,101671.75
2022-09-20T18:29:29.317Z,101687.44
2022-09-20T18:31:59.892Z,101690.72
2022-09-20T18:34:31.019Z,101673.19
2022-09-20T18:37:01.248Z,101688.25
2022-09-20T18:39:32.376Z,101679.66
2022-09-20T18:42:00.903Z,101688.53
2022-09-20T18:44:32.306Z,101683.84
2022-09-20T18:47:02.726Z,101689.09
2022-09-20T18:49:31.282Z,101696.22
2022-09-20T18:51:59.603Z,101692.97
2022-09-20T18:54:30.164Z,101704.97
2022-09-20T18:56:58.864Z,101706.00
2022-09-20T18:59:28.749Z,101704.13
2022-09-20T19:02:08.203Z,101707.78
2022-09-20T19:05:01.177Z,101719.16
2022-09-20T19:07:37.851Z,101724.44
2022-09-20T19:10:13.049Z,101725.09
2022-09-20T19:12:48.321Z,101724.63
2022-09-20T19:15:31.064Z,101729.59
2022-09-20T19:18:18.413Z,101729.25
2022-09-20T19:20:57.070Z,101732.59
2022-09-20T19:23:43.264Z,101740.34
2022-09-20T19:26:20.185Z,101736.41
2022-09-20T19:28:49.012Z,101742.47
2022-09-20T19:31:23.178Z,101747.34
2022-09-20T19:33:55.117Z,101735.34
2022-09-20T19:36:24.366Z,101738.31
2022-09-20T19:39:03.891Z,101741.69
2022-09-20T19:41:41.808Z,101741.38
2022-09-20T19:44:21.971Z,101756.06
2022-09-20T19:47:02.339Z,101740.84
2022-09-20T19:49:41.536Z,101744.03
2022-09-20T19:52:13.379Z,101757.69
2022-09-20T19:54:46.517Z,101752.22
2022-09-20T19:57:20.401Z,101747.94
2022-09-20T19:59:50.523Z,101755.31
2022-09-20T20:02:19.477Z,101756.78
2022-09-20T20:04:50.020Z,101770.59
2022-09-20T20:07:34.665Z,101760.25
2022-09-20T20:10:15.725Z,101761.84
2022-09-20T20:12:51.046Z,101764.56
2022-09-20T20:15:31.126Z,101763.03
2022-09-20T20:18:05.348Z,101765.75
2022-09-20T20:20:40.661Z,101769.66
2022-09-20T20:23:33.360Z,101767.72
2022-09-20T20:26:07.027Z,101778.28
2022-09-20T20:28:35.925Z,101775.97
2022-09-20T20:31:04.615Z,101774.09
2022-09-20T20:33:33.550Z,101765.81
2022-09-20T20:36:03.478Z,101767.84
2022-09-20T20:38:37.270Z,101775.97
2022-09-20T20:41:08.629Z,101781.25
2022-09-20T20:43:38.635Z,101777.41
2022-09-20T20:46:09.684Z,101793.31
2022-09-20T20:48:38.261Z,101798.28
2022-09-20T20:51:09.522Z,101800.53
2022-09-20T20:53:39.663Z,101814.91
2022-09-20T20:56:10.698Z,101800.25
2022-09-20T20:58:40.749Z,101802.50
2022-09-20T21:01:14.070Z,101804.56
2022-09-20T21:03:45.857Z,101799.16
2022-09-20T21:06:16.424Z,101788.25
2022-09-20T21:08:49.309Z,101790.88
2022-09-20T21:11:20.397Z,101791.91
2022-09-20T21:13:48.841Z,101801.59
2022-09-20T21:16:18.613Z,101799.44
2022-09-20T21:18:48.434Z,101802.19
2022-09-20T21:21:20.158Z,101806.16
2022-09-20T21:23:50.584Z,101798.16
2022-09-20T21:26:19.825Z,101805.25
2022-09-20T21:28:52.067Z,101815.44
2022-09-20T21:31:23.147Z,101815.03
2022-09-20T21:33:51.479Z,101823.31
2022-09-20T21:36:22.750Z,101825.88
2022-09-20T21:38:51.159Z,101835.19
2022-09-20T21:41:22.388Z,101833.06
2022-09-20T21:43:54.827Z,101833.19
2022-09-20T21:46:26.281Z,101828.63
2022-09-20T21:48:54.988Z,101834.00
2022-09-20T21:51:25.878Z,101832.34
2022-09-20T21:53:56.340Z,101828.66
2022-09-20T21:56:27.356Z,101834.16
2022-09-20T21:58:56.224Z,101844.13
2022-09-20T22:01:26.630Z,101846.88
2022-09-20T22:03:58.928Z,101847.88
2022-09-20T22:06:31.125Z,101845.84
2022-09-20T22:09:01.150Z,101847.59
2022-09-20T22:11:32.159Z,101849.56
2022-09-20T22:14:00.743Z,101840.00
2022-09-20T22:16:30.562Z,101850.41
2022-09-20T22:18:59.690Z,101840.44
2022-09-20T22:21:31.360Z,101842.03
2022-09-20T22:24:01.615Z,101834.72
2022-09-20T22:26:32.604Z,101833.75
2022-09-20T22:29:01.144Z,101834.72
2022-09-20T22:31:31.281Z,101829.81
2022-09-20T22:34:01.980Z,101837.59
2022-09-20T22:36:33.197Z,101835.41
2022-09-20T22:39:01.701Z,101839.63
2022-09-20T22:41:29.885Z,101829.28
2022-09-20T22:43:58.126Z,101845.75
2022-09-20T22:46:28.391Z,101842.81
2022-09-20T22:48:56.862Z,101838.53
2022-09-20T22:51:27.246Z,101839.72
2022-09-20T22:53:56.791Z,101838.50
2022-09-20T22:56:28.866Z,101840.66
2022-09-20T22:58:59.961Z,101847.13
2022-09-20T23:01:30.640Z,101850.16
2022-09-20T23:04:00.896Z,101850.06
2022-09-20T23:06:30.357Z,101855.69
2022-09-20T23:09:01.942Z,101850.66
2022-09-20T23:11:30.993Z,101846.81
2022-09-20T23:14:02.256Z,101858.38
2022-09-20T23:16:32.650Z,101859.28
2022-09-20T23:19:01.851Z,101854.84
2022-09-20T23:21:30.934Z,101852.63
2022-09-20T23:24:01.987Z,101853.22
2022-09-20T23:26:31.892Z,101856.72
2022-09-20T23:29:02.752Z,101853.47
2022-09-20T23:31:34.623Z,101857.00
2022-09-20T23:34:05.912Z,101861.28
2022-09-20T23:36:36.626Z,101866.69
2022-09-20T23:39:07.496Z,101863.31
2022-09-20T23:41:36.921Z,101866.94
2022-09-20T23:44:06.510Z,101873.75
2022-09-20T23:46:35.265Z,101873.13
2022-09-20T23:49:03.677Z,101870.47
2022-09-20T23:51:32.596Z,101869.44
2022-09-20T23:54:00.762Z,101873.75
2022-09-20T23:56:32.017Z,101866.91
2022-09-20T23:59:00.248Z,101873.97
